Time;durP1;ratioP1;P1;durP2;ratioP2;P2;SDS_P1;SDS_P2;PMS_P1;PMS_P2;Temp;Humidity;BMP_temperature;BMP_pressure;BME280_temperature;BME280_humidity;BME280_pressure;Samples;Min_cycle;Max_cycle;Signal;HPM_P1;HPM_P2
2022/10/16 00:00:16;;;;;;;4.30;1.50;;;;;;;;;;4990612;28;20118;-68
2022/10/16 00:02:42;;;;;;;4.65;1.67;;;;;;;;;;4993485;28;20046;-69
2022/10/16 00:05:07;;;;;;;2.95;1.73;;;;;;;;;;4992140;28;20088;-69
2022/10/16 00:07:33;;;;;;;4.65;1.50;;;;;;;;;;4991800;28;20039;-68
2022/10/16 00:09:58;;;;;;;3.13;1.63;;;;;;;;;;4990085;28;20059;-69
2022/10/16 00:12:23;;;;;;;4.20;1.70;;;;;;;;;;4990573;28;20828;-69
2022/10/16 00:14:49;;;;;;;3.00;1.35;;;;;;;;;;4991657;28;20117;-68
2022/10/16 00:17:14;;;;;;;6.75;1.70;;;;;;;;;;4987841;28;20026;-68
2022/10/16 00:19:40;;;;;;;5.50;1.70;;;;;;;;;;4991391;28;20084;-67
2022/10/16 00:22:05;;;;;;;3.17;1.70;;;;;;;;;;4991822;28;20085;-68
2022/10/16 00:24:30;;;;;;;2.00;1.50;;;;;;;;;;4993720;28;20038;-67
2022/10/16 00:26:56;;;;;;;3.10;1.77;;;;;;;;;;4992145;28;20034;-68
2022/10/16 00:29:21;;;;;;;2.42;1.52;;;;;;;;;;4983079;28;20060;-68
2022/10/16 00:31:47;;;;;;;4.30;1.60;;;;;;;;;;4982228;28;20098;-67
2022/10/16 00:34:12;;;;;;;4.60;1.35;;;;;;;;;;4986255;28;20384;-68
2022/10/16 00:36:38;;;;;;;3.53;1.80;;;;;;;;;;4978699;28;20042;-68
2022/10/16 00:39:03;;;;;;;4.32;1.55;;;;;;;;;;4980158;28;20039;-69
2022/10/16 00:41:29;;;;;;;4.05;1.42;;;;;;;;;;4979909;28;20565;-71
2022/10/16 00:43:57;;;;;;;6.18;1.63;;;;;;;;;;4980911;28;20093;-67
2022/10/16 00:46:27;;;;;;;2.97;1.63;;;;;;;;;;4980089;28;20038;-69
2022/10/16 00:49:11;;;;;;;4.13;1.40;;;;;;;;;;4980380;28;20035;-68
2022/10/16 00:51:40;;;;;;;10.23;1.80;;;;;;;;;;4991623;28;20054;-68
2022/10/16 00:54:10;;;;;;;6.13;1.50;;;;;;;;;;4982825;28;20039;-69
2022/10/16 00:56:36;;;;;;;8.45;1.65;;;;;;;;;;4988060;28;20022;-68
2022/10/16 00:59:07;;;;;;;1.70;1.45;;;;;;;;;;4989153;28;20628;-67
2022/10/16 01:01:32;;;;;;;3.47;1.60;;;;;;;;;;4985707;28;20042;-67
2022/10/16 01:03:58;;;;;;;8.80;2.10;;;;;;;;;;4982096;28;20376;-70
2022/10/16 01:06:37;;;;;;;4.25;1.80;;;;;;;;;;4990675;28;20049;-67
2022/10/16 01:09:25;;;;;;;4.57;2.13;;;;;;;;;;4991402;28;20046;-69
2022/10/16 01:11:59;;;;;;;4.80;1.90;;;;;;;;;;4991049;28;20088;-68
2022/10/16 01:14:53;;;;;;;5.47;2.00;;;;;;;;;;4985327;28;20034;-68
2022/10/16 01:17:26;;;;;;;3.50;1.92;;;;;;;;;;4986267;28;20061;-70
2022/10/16 01:20:03;;;;;;;6.70;2.20;;;;;;;;;;4986711;28;20028;-69
2022/10/16 01:22:47;;;;;;;3.78;1.90;;;;;;;;;;4984835;28;20077;-68
2022/10/16 01:25:25;;;;;;;7.38;2.22;;;;;;;;;;4985265;28;20533;-67
2022/10/16 01:27:52;;;;;;;8.55;2.40;;;;;;;;;;4983048;28;20038;-67
2022/10/16 01:30:23;;;;;;;4.65;2.40;;;;;;;;;;4981677;28;20132;-68
2022/10/16 01:33:20;;;;;;;6.72;1.70;;;;;;;;;;4983974;28;20038;-67
2022/10/16 01:35:52;;;;;;;6.13;2.22;;;;;;;;;;4953193;28;20038;-68
2022/10/16 01:38:29;;;;;;;2.92;1.90;;;;;;;;;;4985176;28;20109;-66
2022/10/16 01:41:04;;;;;;;3.67;2.13;;;;;;;;;;4981792;28;20046;-67
2022/10/16 01:43:48;;;;;;;3.28;2.25;;;;;;;;;;4982893;28;20038;-68
2022/10/16 01:46:16;;;;;;;8.68;2.53;;;;;;;;;;4979161;28;20034;-68
2022/10/16 01:48:41;;;;;;;9.68;2.30;;;;;;;;;;4989795;28;20045;-68
2022/10/16 01:51:10;;;;;;;4.68;2.05;;;;;;;;;;4986143;28;20394;-68
2022/10/16 01:53:37;;;;;;;6.22;2.20;;;;;;;;;;4985845;28;20034;-68
2022/10/16 01:56:06;;;;;;;9.60;2.30;;;;;;;;;;4991793;28;20080;-68
2022/10/16 01:58:36;;;;;;;6.03;2.22;;;;;;;;;;4988142;28;20052;-67
2022/10/16 02:01:04;;;;;;;4.63;2.17;;;;;;;;;;4986167;28;20053;-67
2022/10/16 02:03:29;;;;;;;6.55;1.90;;;;;;;;;;4984382;28;20034;-69
2022/10/16 02:05:57;;;;;;;7.63;2.20;;;;;;;;;;4991703;28;20057;-68
2022/10/16 02:08:27;;;;;;;10.63;2.10;;;;;;;;;;4986708;28;20066;-69
2022/10/16 02:10:55;;;;;;;6.03;2.03;;;;;;;;;;4985238;28;20736;-69
2022/10/16 02:13:29;;;;;;;5.78;2.40;;;;;;;;;;4988759;28;20406;-68
2022/10/16 02:15:55;;;;;;;3.92;2.20;;;;;;;;;;4982260;28;20038;-68
2022/10/16 02:18:21;;;;;;;3.10;2.60;;;;;;;;;;4983352;28;20471;-70
2022/10/16 02:21:13;;;;;;;4.25;2.70;;;;;;;;;;4983927;28;20383;-67
2022/10/16 02:23:59;;;;;;;4.20;2.37;;;;;;;;;;4948584;28;20050;-68
2022/10/16 02:26:31;;;;;;;6.35;2.40;;;;;;;;;;4983262;28;20058;-67
2022/10/16 02:29:04;;;;;;;8.43;2.25;;;;;;;;;;4983614;28;20022;-67
2022/10/16 02:31:34;;;;;;;4.95;2.45;;;;;;;;;;4984881;28;20044;-69
2022/10/16 02:34:01;;;;;;;5.68;2.78;;;;;;;;;;4978067;28;20080;-67
2022/10/16 02:36:27;;;;;;;5.97;2.45;;;;;;;;;;4983651;28;20108;-68
2022/10/16 02:38:53;;;;;;;5.13;2.17;;;;;;;;;;4986248;28;20039;-69
2022/10/16 02:41:20;;;;;;;6.72;2.53;;;;;;;;;;4981439;28;20034;-68
2022/10/16 02:43:45;;;;;;;5.97;2.25;;;;;;;;;;4983381;28;20039;-68
2022/10/16 02:46:11;;;;;;;7.40;3.17;;;;;;;;;;4980493;28;20127;-71
2022/10/16 02:48:36;;;;;;;5.82;2.15;;;;;;;;;;4977043;28;20070;-68
2022/10/16 02:51:01;;;;;;;4.82;2.53;;;;;;;;;;4987176;28;20146;-68
2022/10/16 02:53:27;;;;;;;5.13;2.28;;;;;;;;;;4977836;28;20505;-68
2022/10/16 02:55:52;;;;;;;7.45;2.67;;;;;;;;;;4984782;28;20030;-68
2022/10/16 02:58:18;;;;;;;9.27;2.40;;;;;;;;;;4983448;28;20510;-68
2022/10/16 03:00:43;;;;;;;3.78;2.72;;;;;;;;;;4980525;28;20052;-67
2022/10/16 03:03:09;;;;;;;7.15;2.40;;;;;;;;;;4986464;28;20413;-68
2022/10/16 03:05:34;;;;;;;4.95;2.45;;;;;;;;;;4980982;28;20041;-69
2022/10/16 03:08:00;;;;;;;5.97;2.30;;;;;;;;;;4980253;28;20812;-69
2022/10/16 03:10:26;;;;;;;3.08;2.13;;;;;;;;;;4982742;28;20081;-68
2022/10/16 03:12:51;;;;;;;8.52;2.78;;;;;;;;;;4983685;28;20495;-74
2022/10/16 03:15:17;;;;;;;6.07;2.33;;;;;;;;;;4985768;28;20035;-69
2022/10/16 03:17:43;;;;;;;9.93;2.35;;;;;;;;;;4984465;28;20414;-66
2022/10/16 03:20:08;;;;;;;4.35;2.38;;;;;;;;;;4984371;28;20034;-70
2022/10/16 03:22:34;;;;;;;5.38;1.92;;;;;;;;;;4984302;28;20050;-68
2022/10/16 03:24:59;;;;;;;6.85;2.60;;;;;;;;;;4984508;28;20176;-68
2022/10/16 03:27:25;;;;;;;4.10;2.20;;;;;;;;;;4983765;28;20096;-68
2022/10/16 03:29:50;;;;;;;5.20;2.22;;;;;;;;;;4981284;28;20038;-68
2022/10/16 03:32:15;;;;;;;8.10;2.30;;;;;;;;;;4980131;28;20030;-70
2022/10/16 03:34:41;;;;;;;3.85;2.20;;;;;;;;;;4979937;28;20038;-70
2022/10/16 03:37:06;;;;;;;5.95;2.05;;;;;;;;;;4983635;28;20046;-68
2022/10/16 03:39:32;;;;;;;7.05;2.58;;;;;;;;;;4983770;28;20469;-70
2022/10/16 03:41:57;;;;;;;5.25;2.13;;;;;;;;;;4979934;28;20041;-68
2022/10/16 03:44:22;;;;;;;3.45;2.47;;;;;;;;;;4983860;28;20401;-68
2022/10/16 03:46:48;;;;;;;5.70;2.22;;;;;;;;;;4976343;28;20132;-71
2022/10/16 03:49:13;;;;;;;2.75;2.20;;;;;;;;;;4987969;28;20401;-70
2022/10/16 03:51:39;;;;;;;2.83;1.92;;;;;;;;;;4983729;28;20183;-69
2022/10/16 03:54:04;;;;;;;5.30;2.55;;;;;;;;;;4984609;28;20037;-70
2022/10/16 03:56:30;;;;;;;2.00;1.90;;;;;;;;;;4991512;28;20026;-68
2022/10/16 03:58:55;;;;;;;4.22;2.45;;;;;;;;;;4984673;28;20022;-67
2022/10/16 04:01:20;;;;;;;4.07;2.42;;;;;;;;;;4980914;28;20291;-68
2022/10/16 04:03:46;;;;;;;3.50;2.50;;;;;;;;;;4978882;28;20406;-70
2022/10/16 04:06:11;;;;;;;3.90;2.13;;;;;;;;;;4984164;28;20084;-70
2022/10/16 04:08:38;;;;;;;5.60;2.15;;;;;;;;;;4986976;28;20026;-68
2022/10/16 04:11:04;;;;;;;4.90;2.78;;;;;;;;;;4988516;28;20034;-69
2022/10/16 04:13:29;;;;;;;6.65;2.72;;;;;;;;;;4985110;28;20037;-69
2022/10/16 04:15:55;;;;;;;5.35;2.80;;;;;;;;;;4985989;28;20034;-68
2022/10/16 04:18:20;;;;;;;12.30;2.83;;;;;;;;;;4985937;28;20078;-69
2022/10/16 04:20:46;;;;;;;4.15;2.38;;;;;;;;;;4987936;28;20074;-66
2022/10/16 04:23:11;;;;;;;3.83;2.17;;;;;;;;;;4985399;28;20038;-68
2022/10/16 04:25:37;;;;;;;4.30;2.53;;;;;;;;;;4982174;28;20042;-69
2022/10/16 04:28:02;;;;;;;7.75;2.50;;;;;;;;;;4982646;28;20487;-68
2022/10/16 04:30:28;;;;;;;6.40;2.65;;;;;;;;;;4986396;28;20035;-69
2022/10/16 04:32:53;;;;;;;4.03;2.83;;;;;;;;;;4984470;28;21178;-69
2022/10/16 04:35:20;;;;;;;5.72;2.67;;;;;;;;;;4985970;28;20054;-71
2022/10/16 04:37:46;;;;;;;6.10;2.80;;;;;;;;;;4978922;28;20035;-69
2022/10/16 04:40:11;;;;;;;9.00;2.63;;;;;;;;;;4984111;28;20109;-71
2022/10/16 04:42:37;;;;;;;3.88;2.67;;;;;;;;;;4985912;28;22170;-68
2022/10/16 04:45:05;;;;;;;4.28;2.50;;;;;;;;;;4983469;28;20078;-68
2022/10/16 04:47:30;;;;;;;6.68;2.60;;;;;;;;;;4991652;28;20132;-68
2022/10/16 04:49:56;;;;;;;5.75;2.38;;;;;;;;;;4981477;28;20101;-68
2022/10/16 04:52:24;;;;;;;9.27;3.05;;;;;;;;;;4986259;28;20045;-68
2022/10/16 04:54:50;;;;;;;3.70;2.80;;;;;;;;;;4988605;28;20498;-68
2022/10/16 04:57:15;;;;;;;3.40;2.58;;;;;;;;;;4989573;28;20112;-69
2022/10/16 04:59:41;;;;;;;4.43;2.70;;;;;;;;;;4992646;28;20054;-70
2022/10/16 05:02:06;;;;;;;6.72;2.58;;;;;;;;;;4990500;28;20037;-68
2022/10/16 05:04:31;;;;;;;5.40;2.55;;;;;;;;;;4988937;28;20044;-68
2022/10/16 05:06:57;;;;;;;3.92;2.35;;;;;;;;;;4987602;28;20050;-68
2022/10/16 05:09:22;;;;;;;5.55;2.53;;;;;;;;;;5004301;28;20398;-68
2022/10/16 05:11:48;;;;;;;3.42;2.10;;;;;;;;;;4993766;28;20130;-69
2022/10/16 05:14:13;;;;;;;6.82;2.80;;;;;;;;;;4987157;28;20085;-70
2022/10/16 05:16:38;;;;;;;8.48;2.75;;;;;;;;;;4989524;28;20045;-71
2022/10/16 05:19:04;;;;;;;5.72;2.63;;;;;;;;;;4989492;28;20062;-68
2022/10/16 05:21:29;;;;;;;7.68;2.80;;;;;;;;;;4989220;28;20040;-68
2022/10/16 05:23:55;;;;;;;7.50;2.40;;;;;;;;;;4989463;28;20064;-70
2022/10/16 05:26:20;;;;;;;5.80;2.40;;;;;;;;;;4988499;28;20054;-68
2022/10/16 05:28:47;;;;;;;5.95;2.40;;;;;;;;;;4983475;28;20469;-68
2022/10/16 05:31:12;;;;;;;5.63;2.65;;;;;;;;;;4986564;28;20628;-68
2022/10/16 05:33:37;;;;;;;6.65;2.80;;;;;;;;;;4985322;28;20031;-67
2022/10/16 05:36:05;;;;;;;3.20;2.70;;;;;;;;;;4988121;28;20047;-68
2022/10/16 05:38:31;;;;;;;4.68;2.60;;;;;;;;;;4987238;28;20371;-68
2022/10/16 05:40:56;;;;;;;6.28;2.90;;;;;;;;;;4984729;28;20057;-68
2022/10/16 05:43:22;;;;;;;4.63;2.72;;;;;;;;;;4982238;28;20034;-68
2022/10/16 05:46:00;;;;;;;3.25;2.88;;;;;;;;;;4990067;28;20037;-69
2022/10/16 05:48:25;;;;;;;6.72;2.83;;;;;;;;;;4986537;28;20131;-67
2022/10/16 05:51:06;;;;;;;7.43;3.15;;;;;;;;;;4995388;28;20126;-68
2022/10/16 05:53:34;;;;;;;5.13;2.72;;;;;;;;;;4982250;28;20042;-68
2022/10/16 05:56:00;;;;;;;5.13;2.60;;;;;;;;;;4986299;28;20057;-68
2022/10/16 05:58:29;;;;;;;6.45;2.60;;;;;;;;;;4981608;28;20062;-67
2022/10/16 06:00:57;;;;;;;5.15;2.95;;;;;;;;;;4983914;28;20041;-69
2022/10/16 06:03:23;;;;;;;6.22;3.13;;;;;;;;;;4986045;28;20494;-70
2022/10/16 06:05:49;;;;;;;8.25;2.90;;;;;;;;;;4980436;28;20043;-68
2022/10/16 06:08:14;;;;;;;4.22;3.15;;;;;;;;;;4985659;28;20045;-68
2022/10/16 06:10:39;;;;;;;4.43;3.00;;;;;;;;;;4979934;28;20514;-69
2022/10/16 06:13:05;;;;;;;3.25;2.65;;;;;;;;;;4987554;28;20030;-68
2022/10/16 06:15:30;;;;;;;4.55;2.78;;;;;;;;;;4981507;28;20049;-70
2022/10/16 06:17:56;;;;;;;3.95;2.92;;;;;;;;;;4986523;28;20084;-69
2022/10/16 06:20:21;;;;;;;3.95;2.90;;;;;;;;;;4982155;28;20055;-69
2022/10/16 06:22:46;;;;;;;6.13;3.13;;;;;;;;;;4983314;28;20030;-68
2022/10/16 06:25:12;;;;;;;5.47;3.00;;;;;;;;;;4982088;28;20034;-67
2022/10/16 06:27:40;;;;;;;6.13;3.10;;;;;;;;;;4986574;28;20045;-69
2022/10/16 06:30:06;;;;;;;9.10;3.40;;;;;;;;;;4986634;28;20034;-71
2022/10/16 06:32:32;;;;;;;3.50;3.08;;;;;;;;;;4980130;28;20038;-68
2022/10/16 06:34:57;;;;;;;8.88;3.55;;;;;;;;;;4985270;28;20398;-72
2022/10/16 06:37:22;;;;;;;5.45;3.22;;;;;;;;;;4985598;28;20636;-70
2022/10/16 06:39:48;;;;;;;3.75;3.33;;;;;;;;;;4986337;28;20081;-69
2022/10/16 06:42:13;;;;;;;11.63;3.03;;;;;;;;;;4986655;28;20042;-70
2022/10/16 06:44:39;;;;;;;8.63;3.40;;;;;;;;;;4986787;28;20062;-70
2022/10/16 06:47:04;;;;;;;8.02;2.90;;;;;;;;;;4985349;28;20018;-70
2022/10/16 06:49:29;;;;;;;5.30;2.92;;;;;;;;;;4978192;28;20063;-70
2022/10/16 06:51:55;;;;;;;6.95;3.45;;;;;;;;;;4988903;28;20121;-70
2022/10/16 06:54:20;;;;;;;8.57;3.10;;;;;;;;;;4987411;28;20145;-68
2022/10/16 06:56:46;;;;;;;6.38;3.10;;;;;;;;;;4990255;28;20398;-70
2022/10/16 06:59:11;;;;;;;7.07;2.90;;;;;;;;;;4992934;28;20040;-68
2022/10/16 07:01:36;;;;;;;5.57;3.03;;;;;;;;;;4989342;28;20041;-70
2022/10/16 07:04:02;;;;;;;2.97;2.67;;;;;;;;;;4991296;28;20034;-68
2022/10/16 07:06:32;;;;;;;4.25;2.80;;;;;;;;;;4989861;28;20040;-69
2022/10/16 07:08:57;;;;;;;4.57;3.15;;;;;;;;;;4984615;28;20096;-67
2022/10/16 07:11:23;;;;;;;8.10;3.28;;;;;;;;;;4993706;28;20026;-68
2022/10/16 07:13:50;;;;;;;4.43;3.17;;;;;;;;;;4991975;28;20030;-69
2022/10/16 07:16:18;;;;;;;4.65;2.92;;;;;;;;;;4988940;28;20038;-68
2022/10/16 07:18:45;;;;;;;5.07;2.97;;;;;;;;;;4994192;28;20543;-68
2022/10/16 07:21:16;;;;;;;9.00;3.10;;;;;;;;;;4990390;28;20521;-74
2022/10/16 07:23:42;;;;;;;7.93;3.00;;;;;;;;;;4989331;28;20069;-69
2022/10/16 07:26:08;;;;;;;4.78;2.88;;;;;;;;;;4987320;28;20108;-67
2022/10/16 07:28:34;;;;;;;2.97;2.70;;;;;;;;;;4986450;28;20039;-69
2022/10/16 07:31:07;;;;;;;4.40;3.40;;;;;;;;;;4988773;28;20045;-67
2022/10/16 07:33:34;;;;;;;7.00;3.60;;;;;;;;;;4982897;28;20026;-69
2022/10/16 07:35:59;;;;;;;8.40;3.53;;;;;;;;;;4985502;28;20604;-69
2022/10/16 07:38:24;;;;;;;7.32;3.47;;;;;;;;;;4984917;28;20041;-69
2022/10/16 07:41:01;;;;;;;9.07;4.30;;;;;;;;;;4986915;28;20482;-69
2022/10/16 07:43:27;;;;;;;8.90;5.03;;;;;;;;;;4984185;28;20034;-69
2022/10/16 07:45:53;;;;;;;8.77;4.30;;;;;;;;;;4987354;28;20035;-68
2022/10/16 07:48:19;;;;;;;8.77;4.50;;;;;;;;;;4983641;28;20567;-70
2022/10/16 07:50:45;;;;;;;10.18;4.75;;;;;;;;;;4986060;28;20133;-68
2022/10/16 07:53:11;;;;;;;8.85;4.30;;;;;;;;;;4985628;28;20026;-68
2022/10/16 07:55:36;;;;;;;8.90;4.22;;;;;;;;;;4982472;28;20091;-68
2022/10/16 07:58:01;;;;;;;10.20;4.15;;;;;;;;;;4988152;28;20046;-68
2022/10/16 08:00:27;;;;;;;6.35;4.03;;;;;;;;;;4983123;28;20875;-68
2022/10/16 08:02:52;;;;;;;6.78;3.58;;;;;;;;;;4982451;28;20759;-68
2022/10/16 08:05:18;;;;;;;5.07;3.63;;;;;;;;;;4986818;28;20096;-71
2022/10/16 08:07:48;;;;;;;5.65;3.83;;;;;;;;;;4981860;28;20030;-70
2022/10/16 08:10:19;;;;;;;11.45;4.97;;;;;;;;;;4976224;28;20035;-69
2022/10/16 08:12:44;;;;;;;9.68;3.75;;;;;;;;;;4987397;28;20121;-69
2022/10/16 08:15:10;;;;;;;7.53;3.75;;;;;;;;;;4982820;28;20130;-69
2022/10/16 08:17:35;;;;;;;8.60;3.90;;;;;;;;;;4987903;28;20418;-68
2022/10/16 08:20:01;;;;;;;5.40;3.95;;;;;;;;;;4985984;28;20424;-68
2022/10/16 08:22:27;;;;;;;8.10;3.70;;;;;;;;;;4985103;28;20125;-69
2022/10/16 08:24:52;;;;;;;6.88;3.55;;;;;;;;;;4979920;28;20905;-69
2022/10/16 08:27:17;;;;;;;5.93;4.10;;;;;;;;;;4973921;28;20042;-68
2022/10/16 08:29:43;;;;;;;8.73;3.75;;;;;;;;;;4984408;28;20038;-71
2022/10/16 08:32:08;;;;;;;8.20;4.32;;;;;;;;;;4977334;28;20409;-71
2022/10/16 08:34:33;;;;;;;6.72;3.75;;;;;;;;;;4982401;28;20045;-69
2022/10/16 08:36:59;;;;;;;6.03;3.88;;;;;;;;;;4988227;28;20038;-67
2022/10/16 08:39:24;;;;;;;6.25;3.63;;;;;;;;;;4988039;28;20398;-69
2022/10/16 08:41:56;;;;;;;5.50;4.07;;;;;;;;;;4988210;28;20107;-69
2022/10/16 08:44:24;;;;;;;6.20;4.10;;;;;;;;;;4987843;28;20030;-67
2022/10/16 08:46:52;;;;;;;5.97;3.53;;;;;;;;;;4989695;28;20389;-67
2022/10/16 08:49:18;;;;;;;6.25;3.55;;;;;;;;;;4990359;28;20133;-69
2022/10/16 08:51:45;;;;;;;4.55;3.88;;;;;;;;;;4990556;28;20120;-70
2022/10/16 08:54:23;;;;;;;4.57;3.38;;;;;;;;;;4986319;28;20039;-70
2022/10/16 08:56:48;;;;;;;8.93;3.40;;;;;;;;;;4983941;28;20577;-70
2022/10/16 08:59:15;;;;;;;4.97;3.20;;;;;;;;;;4980333;28;20069;-69
2022/10/16 09:01:45;;;;;;;6.82;3.30;;;;;;;;;;4976453;28;20066;-68
2022/10/16 09:04:35;;;;;;;7.55;3.38;;;;;;;;;;4972625;28;20049;-72
2022/10/16 09:07:32;;;;;;;4.78;2.58;;;;;;;;;;4977112;28;20549;-69
2022/10/16 09:10:19;;;;;;;5.03;3.42;;;;;;;;;;4973288;28;20061;-70
2022/10/16 09:12:56;;;;;;;4.80;3.63;;;;;;;;;;4974441;28;20038;-69
2022/10/16 09:15:33;;;;;;;4.05;3.22;;;;;;;;;;4972033;28;20581;-68
2022/10/16 09:18:26;;;;;;;4.93;3.50;;;;;;;;;;4969589;28;20053;-69
2022/10/16 09:21:21;;;;;;;5.75;3.28;;;;;;;;;;4975461;28;20867;-69
2022/10/16 09:23:47;;;;;;;3.70;3.13;;;;;;;;;;4935274;28;20042;-69
2022/10/16 09:26:15;;;;;;;5.20;3.20;;;;;;;;;;4981882;28;20037;-69
2022/10/16 09:28:41;;;;;;;6.72;3.30;;;;;;;;;;4984210;28;20121;-68
2022/10/16 09:31:15;;;;;;;3.97;3.28;;;;;;;;;;4987759;28;20130;-69
2022/10/16 09:33:41;;;;;;;6.88;3.30;;;;;;;;;;4985860;28;20062;-69
2022/10/16 09:36:08;;;;;;;4.95;2.95;;;;;;;;;;4988137;28;20565;-69
2022/10/16 09:38:36;;;;;;;3.70;2.50;;;;;;;;;;4981151;28;20058;-69
2022/10/16 09:41:15;;;;;;;2.40;2.20;;;;;;;;;;4983263;28;20576;-68
2022/10/16 09:43:48;;;;;;;4.30;2.35;;;;;;;;;;4986544;28;20125;-70
2022/10/16 09:46:28;;;;;;;3.25;2.03;;;;;;;;;;4986236;28;20065;-69
2022/10/16 09:48:59;;;;;;;2.72;1.80;;;;;;;;;;4982121;28;20049;-69
2022/10/16 09:51:26;;;;;;;6.40;1.40;;;;;;;;;;4985188;28;20053;-69
2022/10/16 09:54:00;;;;;;;6.35;1.45;;;;;;;;;;4985761;28;20045;-67
2022/10/16 09:56:51;;;;;;;6.70;1.60;;;;;;;;;;4982872;28;20117;-69
2022/10/16 09:59:20;;;;;;;3.10;1.52;;;;;;;;;;4986452;28;20500;-71
2022/10/16 10:01:50;;;;;;;4.32;1.83;;;;;;;;;;4986699;28;20482;-68
2022/10/16 10:04:18;;;;;;;4.22;1.65;;;;;;;;;;4984268;28;20070;-68
2022/10/16 10:06:46;;;;;;;5.07;1.50;;;;;;;;;;4986454;28;20042;-70
2022/10/16 10:09:18;;;;;;;2.08;1.48;;;;;;;;;;4987146;28;20050;-68
2022/10/16 10:12:02;;;;;;;2.97;2.10;;;;;;;;;;4987101;28;20042;-69
2022/10/16 10:14:47;;;;;;;3.38;2.20;;;;;;;;;;4989028;28;20045;-67
2022/10/16 10:17:15;;;;;;;2.42;1.70;;;;;;;;;;4983489;28;20109;-68
2022/10/16 10:20:21;;;;;;;8.60;1.83;;;;;;;;;;4991425;28;20449;-69
2022/10/16 10:22:46;;;;;;;3.30;1.63;;;;;;;;;;4980802;28;20072;-69
2022/10/16 10:25:12;;;;;;;5.40;2.78;;;;;;;;;;4984736;28;20073;-69
2022/10/16 10:28:15;;;;;;;7.00;3.10;;;;;;;;;;4983881;28;20035;-69
2022/10/16 10:30:55;;;;;;;7.35;3.20;;;;;;;;;;4983429;28;20041;-68
2022/10/16 10:33:38;;;;;;;7.25;2.35;;;;;;;;;;4986329;28;20791;-72
2022/10/16 10:36:17;;;;;;;7.53;2.78;;;;;;;;;;4986985;28;20046;-68
2022/10/16 10:38:58;;;;;;;4.70;1.75;;;;;;;;;;4985826;28;20042;-68
2022/10/16 10:41:29;;;;;;;6.28;1.80;;;;;;;;;;4986358;28;20029;-68
2022/10/16 10:44:13;;;;;;;4.72;2.05;;;;;;;;;;4983876;28;20044;-67
2022/10/16 10:46:50;;;;;;;3.75;1.98;;;;;;;;;;4986922;28;20065;-67
2022/10/16 10:49:27;;;;;;;4.78;2.00;;;;;;;;;;4984636;28;20041;-67
2022/10/16 10:52:13;;;;;;;3.40;1.80;;;;;;;;;;4986106;28;20046;-67
2022/10/16 10:54:57;;;;;;;3.63;1.95;;;;;;;;;;4988802;28;20165;-68
2022/10/16 10:57:35;;;;;;;4.45;1.65;;;;;;;;;;4987344;28;20045;-69
2022/10/16 11:00:15;;;;;;;6.00;1.67;;;;;;;;;;4984775;28;20122;-68
2022/10/16 11:03:04;;;;;;;4.28;1.60;;;;;;;;;;4989418;28;20185;-69
2022/10/16 11:05:43;;;;;;;6.25;1.70;;;;;;;;;;4991193;28;20042;-69
2022/10/16 11:08:43;;;;;;;7.35;2.05;;;;;;;;;;4987181;28;20038;-69
2022/10/16 11:11:08;;;;;;;7.60;2.05;;;;;;;;;;4983697;28;21991;-69
2022/10/16 11:13:37;;;;;;;4.43;1.70;;;;;;;;;;4985994;28;20060;-69
2022/10/16 11:16:14;;;;;;;3.67;1.70;;;;;;;;;;4981517;28;20213;-68
2022/10/16 11:18:50;;;;;;;5.55;1.85;;;;;;;;;;4990193;28;20052;-68
2022/10/16 11:21:19;;;;;;;2.75;1.38;;;;;;;;;;4989980;28;20038;-69
2022/10/16 11:23:57;;;;;;;2.33;1.45;;;;;;;;;;4988304;28;20450;-68
2022/10/16 11:26:43;;;;;;;6.05;1.70;;;;;;;;;;4988055;28;20607;-67
2022/10/16 11:29:19;;;;;;;3.10;2.00;;;;;;;;;;4993262;28;20055;-68
2022/10/16 11:31:55;;;;;;;5.20;1.77;;;;;;;;;;4986449;28;20031;-69
2022/10/16 11:34:21;;;;;;;1.42;1.33;;;;;;;;;;4987506;28;20031;-68
2022/10/16 11:37:13;;;;;;;2.95;1.65;;;;;;;;;;4983188;28;20035;-69
2022/10/16 11:39:40;;;;;;;2.55;1.13;;;;;;;;;;4984192;28;20031;-68
2022/10/16 11:42:10;;;;;;;2.20;1.55;;;;;;;;;;4986329;28;20034;-68
2022/10/16 11:45:02;;;;;;;2.47;1.67;;;;;;;;;;4988651;28;20049;-67
2022/10/16 11:47:33;;;;;;;3.47;1.98;;;;;;;;;;4982256;28;20607;-68
2022/10/16 11:50:25;;;;;;;4.93;1.25;;;;;;;;;;4984708;28;20041;-69
2022/10/16 11:53:09;;;;;;;3.45;1.17;;;;;;;;;;4989961;28;20076;-68
2022/10/16 11:55:40;;;;;;;3.30;1.08;;;;;;;;;;4985013;28;20070;-69
2022/10/16 11:58:19;;;;;;;1.77;1.00;;;;;;;;;;4984710;28;20048;-69
2022/10/16 12:00:53;;;;;;;4.82;1.20;;;;;;;;;;4989612;28;20029;-68
2022/10/16 12:03:31;;;;;;;2.17;1.10;;;;;;;;;;4984142;28;20050;-68
2022/10/16 12:06:15;;;;;;;2.47;1.30;;;;;;;;;;4986860;28;20042;-67
2022/10/16 12:08:43;;;;;;;4.07;0.90;;;;;;;;;;4981007;28;20382;-67
2022/10/16 12:11:22;;;;;;;1.35;1.10;;;;;;;;;;4987945;28;20030;-68
2022/10/16 12:13:48;;;;;;;3.25;1.30;;;;;;;;;;4985193;28;20057;-67
2022/10/16 12:16:13;;;;;;;2.70;1.20;;;;;;;;;;4983419;28;20488;-68
2022/10/16 12:18:44;;;;;;;4.05;1.10;;;;;;;;;;4983926;28;20034;-67
2022/10/16 12:21:13;;;;;;;1.58;1.02;;;;;;;;;;4982276;28;20074;-67
2022/10/16 12:23:56;;;;;;;5.75;1.27;;;;;;;;;;4983878;28;20036;-68
2022/10/16 12:26:27;;;;;;;1.63;1.20;;;;;;;;;;4982741;28;20088;-67
2022/10/16 12:28:53;;;;;;;3.63;1.30;;;;;;;;;;4980537;28;20041;-69
2022/10/16 12:31:19;;;;;;;1.20;0.98;;;;;;;;;;4998969;28;20042;-67
2022/10/16 12:33:59;;;;;;;2.78;1.20;;;;;;;;;;4983248;28;20046;-68
2022/10/16 12:36:34;;;;;;;6.65;2.70;;;;;;;;;;4983322;28;20045;-67
2022/10/16 12:39:00;;;;;;;1.73;1.33;;;;;;;;;;4984828;28;20054;-67
2022/10/16 12:41:35;;;;;;;2.08;1.30;;;;;;;;;;4986586;28;20416;-67
2022/10/16 12:44:01;;;;;;;2.63;1.00;;;;;;;;;;4983227;28;20359;-68
2022/10/16 12:46:29;;;;;;;5.15;1.35;;;;;;;;;;4976607;28;20046;-67
2022/10/16 12:49:13;;;;;;;2.85;0.90;;;;;;;;;;4978655;28;20050;-67
2022/10/16 12:51:40;;;;;;;1.40;1.13;;;;;;;;;;4984811;28;20499;-67
2022/10/16 12:54:18;;;;;;;3.13;1.13;;;;;;;;;;4988508;28;20041;-67
2022/10/16 12:56:49;;;;;;;4.05;1.20;;;;;;;;;;4976072;28;20502;-69
2022/10/16 12:59:25;;;;;;;2.50;1.17;;;;;;;;;;4988395;28;20033;-67
2022/10/16 13:02:16;;;;;;;1.88;1.20;;;;;;;;;;4990059;28;20037;-68
2022/10/16 13:05:00;;;;;;;1.42;1.00;;;;;;;;;;4981955;28;20030;-69
2022/10/16 13:07:44;;;;;;;2.42;1.00;;;;;;;;;;4985306;28;20045;-68
2022/10/16 13:10:23;;;;;;;5.88;1.00;;;;;;;;;;4985634;28;20073;-67
2022/10/16 13:13:00;;;;;;;0.82;0.68;;;;;;;;;;4985179;28;20049;-67
2022/10/16 13:15:32;;;;;;;1.00;0.90;;;;;;;;;;4982216;28;20157;-67
2022/10/16 13:18:19;;;;;;;3.08;0.90;;;;;;;;;;4986531;28;20516;-70
2022/10/16 13:21:16;;;;;;;2.75;0.80;;;;;;;;;;4984718;28;20046;-69
2022/10/16 13:23:52;;;;;;;1.00;0.80;;;;;;;;;;4982168;28;20557;-68
2022/10/16 13:26:41;;;;;;;3.22;0.73;;;;;;;;;;4987036;28;20053;-69
2022/10/16 13:29:07;;;;;;;2.88;0.90;;;;;;;;;;4988506;28;20046;-69
2022/10/16 13:31:34;;;;;;;2.72;1.00;;;;;;;;;;4983347;28;20610;-67
2022/10/16 13:34:00;;;;;;;3.10;1.00;;;;;;;;;;4987920;28;20042;-69
2022/10/16 13:36:29;;;;;;;2.88;0.90;;;;;;;;;;4989676;28;20125;-68
2022/10/16 13:39:03;;;;;;;1.10;0.90;;;;;;;;;;4983365;28;20046;-68
2022/10/16 13:41:29;;;;;;;3.05;0.80;;;;;;;;;;4986028;28;20698;-68
2022/10/16 13:43:56;;;;;;;2.22;0.80;;;;;;;;;;4985880;28;20022;-68
2022/10/16 13:46:24;;;;;;;2.58;1.00;;;;;;;;;;4983195;28;20058;-68
2022/10/16 13:49:01;;;;;;;2.72;1.60;;;;;;;;;;4987255;28;20034;-68
2022/10/16 13:51:28;;;;;;;2.53;1.55;;;;;;;;;;4986736;28;20145;-70
2022/10/16 13:53:56;;;;;;;1.70;1.50;;;;;;;;;;4982002;28;20047;-67
2022/10/16 13:56:25;;;;;;;4.85;1.63;;;;;;;;;;4989669;28;20022;-68
2022/10/16 13:59:22;;;;;;;3.10;1.70;;;;;;;;;;4986047;28;20026;-68
2022/10/16 14:01:47;;;;;;;2.53;1.58;;;;;;;;;;4985473;28;20041;-69
2022/10/16 14:04:14;;;;;;;2.63;1.50;;;;;;;;;;4986414;28;20034;-68
2022/10/16 14:06:45;;;;;;;2.92;1.25;;;;;;;;;;4986522;28;20057;-67
2022/10/16 14:09:16;;;;;;;3.17;1.20;;;;;;;;;;4988952;28;20441;-69
2022/10/16 14:11:54;;;;;;;3.05;1.30;;;;;;;;;;4992068;28;20046;-68
2022/10/16 14:14:20;;;;;;;2.97;1.00;;;;;;;;;;4987001;28;20026;-69
2022/10/16 14:16:46;;;;;;;1.45;1.05;;;;;;;;;;4989927;28;20030;-78
2022/10/16 14:19:29;;;;;;;2.17;1.35;;;;;;;;;;4989555;28;20822;-70
2022/10/16 14:21:56;;;;;;;3.80;1.10;;;;;;;;;;4986229;28;20121;-68
2022/10/16 14:24:34;;;;;;;2.03;1.15;;;;;;;;;;4985491;28;20049;-69
2022/10/16 14:27:00;;;;;;;1.10;1.00;;;;;;;;;;4985877;28;20049;-69
2022/10/16 14:29:27;;;;;;;1.40;1.13;;;;;;;;;;4990667;28;20058;-70
2022/10/16 14:32:01;;;;;;;1.50;1.40;;;;;;;;;;4987903;28;20489;-68
2022/10/16 14:34:32;;;;;;;2.03;1.30;;;;;;;;;;4989094;28;20038;-68
2022/10/16 14:37:02;;;;;;;1.83;1.50;;;;;;;;;;4987807;28;20398;-67
2022/10/16 14:39:28;;;;;;;3.50;1.13;;;;;;;;;;4986402;28;20038;-69
2022/10/16 14:41:56;;;;;;;2.45;1.00;;;;;;;;;;4989086;28;20298;-67
2022/10/16 14:44:28;;;;;;;1.63;1.00;;;;;;;;;;4985477;28;20061;-69
2022/10/16 14:46:53;;;;;;;0.90;0.90;;;;;;;;;;4986896;28;20113;-69
2022/10/16 14:49:21;;;;;;;1.80;1.60;;;;;;;;;;4988682;28;20145;-70
2022/10/16 14:51:47;;;;;;;2.28;1.10;;;;;;;;;;4986713;28;20129;-69
2022/10/16 14:54:17;;;;;;;3.85;1.65;;;;;;;;;;4987321;28;20138;-69
2022/10/16 14:56:48;;;;;;;1.38;1.20;;;;;;;;;;4986488;28;20039;-69
2022/10/16 14:59:36;;;;;;;2.03;1.42;;;;;;;;;;4986669;28;20050;-69
2022/10/16 15:02:24;;;;;;;3.92;1.88;;;;;;;;;;4985093;28;20043;-68